Time;durP1;ratioP1;P1;durP2;ratioP2;P2;SDS_P1;SDS_P2;PMS_P1;PMS_P2;Temp;Humidity;BMP_temperature;BMP_pressure;BME280_temperature;BME280_humidity;BME280_pressure;Samples;Min_cycle;Max_cycle;Signal;HPM_P1;HPM_P2
2023/01/30 00:00:52;;;;;;;11.65;4.85;;;;;;;7.20;100.00;101438.63;5048408;28;20107;-73
2023/01/30 00:03:17;;;;;;;14.38;5.90;;;;;;;7.22;100.00;101450.94;5049988;28;20124;-74
2023/01/30 00:05:42;;;;;;;19.58;5.40;;;;;;;7.26;100.00;101431.03;5048819;28;20052;-72
2023/01/30 00:08:08;;;;;;;19.02;5.53;;;;;;;7.19;100.00;101429.00;5049740;28;20021;-74
2023/01/30 00:10:33;;;;;;;12.63;5.70;;;;;;;7.18;100.00;101415.03;5044755;28;20033;-73
2023/01/30 00:12:58;;;;;;;20.67;6.10;;;;;;;7.21;100.00;101416.88;5049274;28;20032;-73
2023/01/30 00:15:24;;;;;;;12.15;5.07;;;;;;;7.17;100.00;101426.31;5040232;28;20032;-74
2023/01/30 00:17:49;;;;;;;15.95;5.32;;;;;;;7.16;100.00;101423.63;5047769;28;20029;-73
2023/01/30 00:20:14;;;;;;;17.50;5.45;;;;;;;7.14;100.00;101425.31;5048845;28;20083;-73
2023/01/30 00:22:40;;;;;;;15.15;5.85;;;;;;;7.16;100.00;101424.56;5050332;28;20469;-73
2023/01/30 00:25:05;;;;;;;23.25;5.57;;;;;;;7.18;100.00;101416.75;5049368;28;20053;-72
2023/01/30 00:27:31;;;;;;;17.10;4.70;;;;;;;7.16;100.00;101415.78;5050545;28;20056;-74
2023/01/30 00:29:56;;;;;;;16.83;5.25;;;;;;;7.19;100.00;101402.81;5049107;28;20037;-73
2023/01/30 00:32:24;;;;;;;23.48;4.72;;;;;;;7.15;100.00;101403.53;5049102;28;20090;-74
2023/01/30 00:34:49;;;;;;;14.00;4.50;;;;;;;7.12;100.00;101395.56;5044361;28;20500;-73
2023/01/30 00:37:15;;;;;;;20.33;5.82;;;;;;;7.14;100.00;101392.19;5041492;28;20037;-72
2023/01/30 00:39:40;;;;;;;21.23;5.43;;;;;;;7.13;100.00;101393.00;5049135;28;20029;-73
2023/01/30 00:47:33;;;;;;;;;;;;;;;7.14;100.00;101383.44;5047504;28;20143;-73
2023/01/30 00:49:58;;;;;;;13.95;4.80;;;;;;;7.08;100.00;101382.38;5043002;28;19916;-73
2023/01/30 00:52:23;;;;;;;12.48;4.93;;;;;;;7.06;100.00;101372.66;5039304;28;20064;-74
2023/01/30 00:54:51;;;;;;;30.55;5.82;;;;;;;7.05;100.00;101368.25;5050658;28;20502;-73
2023/01/30 00:57:16;;;;;;;15.60;4.68;;;;;;;7.04;100.00;101359.53;5054216;28;20118;-73
2023/01/30 00:59:41;;;;;;;17.02;4.80;;;;;;;7.07;100.00;101351.78;5054108;28;20029;-74
2023/01/30 01:02:07;;;;;;;16.30;4.85;;;;;;;7.09;100.00;101323.97;5043980;28;20083;-72
2023/01/30 01:04:41;;;;;;;22.65;4.22;;;;;;;7.06;100.00;101326.44;5052703;28;20029;-74
2023/01/30 01:07:10;;;;;;;15.43;4.07;;;;;;;7.05;100.00;101308.97;5051641;28;20040;-74
2023/01/30 01:09:35;;;;;;;18.38;4.30;;;;;;;7.05;100.00;101306.38;5045255;28;20442;-73
2023/01/30 01:12:02;;;;;;;20.38;4.15;;;;;;;7.04;100.00;101303.66;5052305;28;20382;-74
2023/01/30 01:14:27;;;;;;;16.77;4.30;;;;;;;7.02;100.00;101315.81;5052060;28;20102;-73
2023/01/30 01:16:53;;;;;;;21.33;3.60;;;;;;;7.02;100.00;101306.22;5052187;28;20064;-74
2023/01/30 01:19:18;;;;;;;14.13;3.28;;;;;;;7.00;100.00;101302.69;5053873;28;20053;-73
2023/01/30 01:21:43;;;;;;;20.45;3.63;;;;;;;6.97;100.00;101302.53;5051796;28;20025;-73
2023/01/30 01:24:12;;;;;;;13.23;3.80;;;;;;;7.00;100.00;101313.13;5065269;28;20488;-74
2023/01/30 01:26:38;;;;;;;12.07;2.60;;;;;;;6.94;100.00;101315.50;5052054;28;20441;-73
2023/01/30 01:29:03;;;;;;;9.02;3.00;;;;;;;7.00;100.00;101313.13;5052315;28;20103;-74
2023/01/30 01:31:29;;;;;;;16.85;3.67;;;;;;;6.98;100.00;101314.78;5052450;28;20029;-73
2023/01/30 01:33:55;;;;;;;14.35;3.42;;;;;;;6.98;100.00;101306.06;5052403;28;20427;-73
2023/01/30 01:36:20;;;;;;;16.52;3.55;;;;;;;6.96;100.00;101308.63;5046182;28;20036;-72
2023/01/30 01:38:46;;;;;;;13.82;3.45;;;;;;;6.95;100.00;101322.53;5052006;28;20080;-73
2023/01/30 01:41:12;;;;;;;10.43;3.50;;;;;;;6.98;100.00;101324.38;5051462;28;20096;-74
2023/01/30 01:43:56;;;;;;;8.40;3.15;;;;;;;6.98;100.00;101325.25;5040486;28;20052;-74
2023/01/30 01:46:24;;;;;;;24.60;3.67;;;;;;;6.91;100.00;101312.78;5042322;28;20112;-73
2023/01/30 01:48:56;;;;;;;8.88;3.35;;;;;;;6.78;100.00;101320.97;5043063;28;20086;-74
2023/01/30 01:51:38;;;;;;;21.15;3.03;;;;;;;6.71;100.00;101320.72;5049524;28;20026;-74
2023/01/30 01:54:18;;;;;;;13.25;3.72;;;;;;;6.64;100.00;101318.69;5050881;28;20040;-73
2023/01/30 01:56:47;;;;;;;15.15;3.30;;;;;;;6.54;100.00;101327.00;5051813;28;20116;-73
2023/01/30 01:59:33;;;;;;;14.82;3.17;;;;;;;6.53;100.00;101310.41;5045940;28;20064;-73
2023/01/30 02:02:04;;;;;;;12.68;2.95;;;;;;;6.48;100.00;101316.28;5047922;28;20534;-73
2023/01/30 02:07:20;;;;;;;15.02;2.97;;;;;;;6.44;100.00;101311.78;5053383;28;20044;-75
2023/01/30 02:09:45;;;;;;;17.75;3.45;;;;;;;6.45;100.00;101305.72;5045866;28;20029;-74
2023/01/30 02:12:13;;;;;;;11.95;3.20;;;;;;;6.48;100.00;101292.75;5044760;28;20036;-74
2023/01/30 02:14:39;;;;;;;12.88;2.53;;;;;;;6.53;100.00;101294.72;5048333;28;20380;-73
2023/01/30 02:17:04;;;;;;;10.50;2.58;;;;;;;6.55;100.00;101293.09;5047189;28;20017;-73
2023/01/30 02:19:39;;;;;;;11.38;2.67;;;;;;;6.61;100.00;101292.44;5039471;28;20030;-73
2023/01/30 02:22:13;;;;;;;11.95;2.33;;;;;;;6.65;100.00;101296.94;5046464;28;20113;-73
2023/01/30 02:24:41;;;;;;;9.75;2.88;;;;;;;6.70;100.00;101291.88;5045986;28;20016;-73
2023/01/30 02:27:53;;;;;;;23.17;3.42;;;;;;;6.73;100.00;101292.03;5051661;28;20032;-72
2023/01/30 02:30:56;;;;;;;12.43;3.25;;;;;;;6.77;100.00;101279.94;5040926;28;20040;-72
2023/01/30 02:34:06;;;;;;;19.58;3.17;;;;;;;6.79;100.00;101296.59;5047126;28;20111;-74
2023/01/30 02:36:50;;;;;;;12.55;2.78;;;;;;;6.76;100.00;101294.75;5038843;28;20032;-73
2023/01/30 02:39:24;;;;;;;;;;;;;;;6.74;100.00;101289.47;5052707;28;20477;-74
2023/01/30 02:42:10;;;;;;;11.73;2.17;;;;;;;6.71;100.00;101302.41;5052098;28;19919;-73
2023/01/30 02:45:03;;;;;;;13.25;2.92;;;;;;;6.75;100.00;101296.50;5050413;28;20822;-73
2023/01/30 02:47:38;;;;;;;18.92;3.10;;;;;;;6.72;100.00;101285.88;5050862;28;20033;-73
2023/01/30 02:50:12;;;;;;;4.93;2.13;;;;;;;6.78;100.00;101286.97;5047625;28;20037;-74
2023/01/30 02:52:39;;;;;;;15.77;3.20;;;;;;;6.79;100.00;101288.75;5051446;28;20455;-73
2023/01/30 02:55:25;;;;;;;17.48;3.08;;;;;;;6.78;100.00;101290.47;5052666;28;20037;-73
2023/01/30 02:57:52;;;;;;;18.85;3.40;;;;;;;6.80;100.00;101303.63;5035554;28;20037;-74
2023/01/30 03:00:26;;;;;;;8.55;2.80;;;;;;;6.85;100.00;101273.28;5045231;28;20025;-72
2023/01/30 03:03:09;;;;;;;14.23;3.22;;;;;;;6.88;100.00;101268.19;5046645;28;20029;-74
2023/01/30 03:06:08;;;;;;;15.65;3.13;;;;;;;6.91;100.00;101284.00;5044683;28;20049;-72
2023/01/30 03:09:03;;;;;;;14.70;3.30;;;;;;;6.92;100.00;101304.97;5041357;28;20044;-74
2023/01/30 03:11:37;;;;;;;21.98;3.35;;;;;;;6.93;100.00;101284.94;5042211;28;20112;-73
2023/01/30 03:14:15;;;;;;;10.80;2.90;;;;;;;6.97;100.00;101293.81;5059904;28;20091;-74
2023/01/30 03:16:43;;;;;;;19.20;3.75;;;;;;;6.96;100.00;101277.22;5048384;28;20059;-72
2023/01/30 03:19:12;;;;;;;10.02;2.67;;;;;;;6.98;100.00;101266.81;5051619;28;20029;-72
2023/01/30 03:21:43;;;;;;;14.85;3.65;;;;;;;6.99;100.00;101273.84;5039579;28;20037;-73
2023/01/30 03:24:08;;;;;;;19.13;3.00;;;;;;;7.01;100.00;101266.94;5047559;28;20128;-73
2023/01/30 03:26:39;;;;;;;14.02;3.08;;;;;;;7.00;100.00;101260.81;5047102;28;20037;-73
2023/01/30 03:29:04;;;;;;;11.95;2.53;;;;;;;7.00;100.00;101266.03;5048190;28;20029;-73
2023/01/30 03:31:30;;;;;;;9.63;2.95;;;;;;;6.98;100.00;101262.47;5049685;28;20037;-72
2023/01/30 03:33:55;;;;;;;29.98;4.35;;;;;;;6.98;100.00;101267.69;5047839;28;20032;-73
2023/01/30 03:36:20;;;;;;;14.55;2.72;;;;;;;6.99;100.00;101266.00;5045351;28;20036;-72
2023/01/30 03:38:46;;;;;;;15.43;3.10;;;;;;;6.97;100.00;101271.13;5037070;28;20036;-74
2023/01/30 03:41:11;;;;;;;15.35;3.15;;;;;;;7.01;100.00;101277.38;5047037;28;20392;-73
2023/01/30 03:43:36;;;;;;;15.73;2.83;;;;;;;7.00;100.00;101268.66;5050092;28;20105;-74
2023/01/30 03:46:02;;;;;;;10.20;2.92;;;;;;;7.00;100.00;101273.91;5047262;28;20166;-73
2023/01/30 03:48:27;;;;;;;23.55;3.35;;;;;;;6.99;100.00;101274.72;5034760;28;20082;-74
2023/01/30 03:50:53;;;;;;;23.42;3.35;;;;;;;6.98;100.00;101262.47;5043652;28;20542;-73
2023/01/30 03:53:21;;;;;;;13.38;2.83;;;;;;;6.97;100.00;101260.66;5042040;28;20025;-72
2023/01/30 03:55:46;;;;;;;19.83;3.63;;;;;;;6.94;100.00;101255.34;5050775;28;20033;-73
2023/01/30 03:58:12;;;;;;;14.13;2.90;;;;;;;6.96;100.00;101258.91;5050193;28;20044;-72
2023/01/30 04:00:37;;;;;;;18.38;3.53;;;;;;;7.01;100.00;101260.00;5047386;28;20465;-73
2023/01/30 04:03:02;;;;;;;19.55;3.42;;;;;;;7.01;100.00;101267.84;5051060;28;20029;-73
2023/01/30 04:05:28;;;;;;;16.40;2.97;;;;;;;7.03;100.00;101254.81;5050843;28;20106;-73
2023/01/30 04:07:57;;;;;;;23.40;3.00;;;;;;;7.03;100.00;101237.38;5047198;28;20109;-73
2023/01/30 04:10:23;;;;;;;17.73;2.65;;;;;;;6.99;100.00;101251.16;5050852;28;20032;-74
2023/01/30 04:12:48;;;;;;;12.45;3.15;;;;;;;6.98;100.00;101252.00;5050449;28;20472;-73
2023/01/30 04:15:14;;;;;;;8.40;2.58;;;;;;;6.96;100.00;101258.91;5045199;28;20506;-73
2023/01/30 04:17:39;;;;;;;11.80;2.50;;;;;;;6.97;100.00;101252.81;5049859;28;20057;-73
2023/01/30 04:20:05;;;;;;;16.35;2.63;;;;;;;7.03;100.00;101280.97;5051065;28;20024;-73
2023/01/30 04:22:31;;;;;;;8.35;2.67;;;;;;;7.02;100.00;101264.34;5038146;28;20043;-72
2023/01/30 04:24:56;;;;;;;11.55;2.83;;;;;;;6.97;100.00;101260.66;5051673;28;20039;-74
2023/01/30 04:27:21;;;;;;;10.48;2.20;;;;;;;7.04;100.00;101278.41;5049928;28;20024;-73
2023/01/30 04:29:46;;;;;;;7.47;1.88;;;;;;;7.09;100.00;101308.28;5049638;28;20045;-73
2023/01/30 04:32:12;;;;;;;15.02;2.00;;;;;;;7.11;100.00;101294.31;5048458;28;20086;-73
2023/01/30 04:34:37;;;;;;;8.00;2.35;;;;;;;7.15;100.00;101294.50;5055002;28;20031;-73
2023/01/30 04:37:03;;;;;;;10.50;2.60;;;;;;;7.17;100.00;101295.44;5054011;28;20037;-73
2023/01/30 04:39:28;;;;;;;8.27;1.60;;;;;;;7.21;100.00;101301.69;5052462;28;20032;-73
2023/01/30 04:41:53;;;;;;;7.97;1.70;;;;;;;7.26;100.00;101306.28;5060499;28;20033;-72
2023/01/30 04:44:18;;;;;;;7.72;1.75;;;;;;;7.28;100.00;101308.94;5047805;28;20029;-73
2023/01/30 04:46:44;;;;;;;15.93;2.00;;;;;;;7.25;100.00;101301.88;5053048;28;20427;-73
2023/01/30 04:49:10;;;;;;;8.80;2.28;;;;;;;7.30;100.00;101306.38;5054576;28;20377;-73
2023/01/30 04:51:35;;;;;;;14.55;2.30;;;;;;;7.27;100.00;101309.81;5053136;28;20036;-73
2023/01/30 04:54:01;;;;;;;10.73;2.17;;;;;;;7.28;100.00;101313.28;5053682;28;20039;-72
2023/01/30 04:56:26;;;;;;;12.85;1.95;;;;;;;7.23;100.00;101326.19;5054150;28;20028;-73
2023/01/30 04:58:52;;;;;;;23.40;2.58;;;;;;;7.22;100.00;101327.06;5053528;28;20067;-74
2023/01/30 05:01:29;;;;;;;14.60;1.92;;;;;;;7.13;100.00;101324.06;5049926;28;20029;-73
2023/01/30 05:03:54;;;;;;;18.35;2.50;;;;;;;7.08;100.00;101327.41;5046164;28;20366;-74
2023/01/30 05:06:21;;;;;;;9.68;1.85;;;;;;;6.97;100.00;101318.22;5047292;28;20056;-73
2023/01/30 05:08:51;;;;;;;10.45;2.88;;;;;;;6.92;100.00;101319.81;5063394;28;20026;-73
2023/01/30 05:11:17;;;;;;;12.82;2.20;;;;;;;6.88;100.00;101323.13;5034790;28;20029;-73
2023/01/30 05:13:43;;;;;;;17.85;2.45;;;;;;;6.85;100.00;101315.13;5049981;28;20546;-73
2023/01/30 05:16:12;;;;;;;13.65;2.33;;;;;;;6.78;100.00;101315.75;5047954;28;20021;-73
2023/01/30 05:18:38;;;;;;;20.95;2.95;;;;;;;6.72;100.00;101311.16;5054524;28;20076;-73
2023/01/30 05:21:09;;;;;;;20.52;2.50;;;;;;;6.66;100.00;101322.28;5053356;28;20021;-73
2023/01/30 05:23:35;;;;;;;17.85;2.72;;;;;;;6.64;100.00;101313.47;5044140;28;20530;-73
2023/01/30 05:26:01;;;;;;;13.52;2.30;;;;;;;6.61;100.00;101313.34;5046997;28;20116;-72
2023/01/30 05:28:27;;;;;;;18.25;2.75;;;;;;;6.57;100.00;101316.66;5054455;28;20401;-73
2023/01/30 05:30:53;;;;;;;19.67;2.78;;;;;;;6.52;100.00;101319.09;5048099;28;20037;-73
2023/01/30 05:33:18;;;;;;;15.20;3.05;;;;;;;6.51;100.00;101305.94;5039967;28;20079;-73
2023/01/30 05:35:48;;;;;;;24.58;3.05;;;;;;;6.47;100.00;101315.41;5051058;28;20033;-74
2023/01/30 05:38:13;;;;;;;15.00;2.90;;;;;;;6.45;100.00;101313.56;5053995;28;20036;-72
2023/01/30 05:40:38;;;;;;;16.23;2.08;;;;;;;6.42;100.00;101337.84;5047677;28;20503;-73
2023/01/30 05:43:04;;;;;;;22.27;3.20;;;;;;;6.36;100.00;101334.97;5048737;28;20029;-74
2023/01/30 05:45:29;;;;;;;15.82;2.78;;;;;;;6.33;100.00;101343.56;5048465;28;20039;-74
2023/01/30 05:47:54;;;;;;;20.67;3.03;;;;;;;6.28;100.00;101345.13;5047823;28;20030;-73
2023/01/30 05:50:20;;;;;;;18.50;3.13;;;;;;;6.24;100.00;101344.09;5036745;28;20487;-74
2023/01/30 05:52:46;;;;;;;19.85;2.63;;;;;;;6.20;100.00;101346.50;5042716;28;20109;-74
2023/01/30 05:55:11;;;;;;;24.27;3.25;;;;;;;6.16;100.00;101345.50;5052639;28;20028;-74
2023/01/30 05:57:37;;;;;;;22.50;3.15;;;;;;;6.13;100.00;101339.22;5054401;28;20133;-73
2023/01/30 06:00:04;;;;;;;22.45;3.25;;;;;;;6.12;100.00;101333.13;5052365;28;20044;-73
2023/01/30 06:02:30;;;;;;;22.20;3.50;;;;;;;6.08;100.00;101328.59;5052499;28;20328;-73
2023/01/30 06:04:55;;;;;;;27.50;3.33;;;;;;;6.02;100.00;101334.47;5053513;28;20406;-74
2023/01/30 06:07:21;;;;;;;11.98;2.45;;;;;;;6.03;100.00;101336.22;5038241;28;20397;-74
2023/01/30 06:09:46;;;;;;;27.85;3.20;;;;;;;6.05;100.00;101337.19;5036417;28;20060;-73
2023/01/30 06:12:11;;;;;;;22.45;2.60;;;;;;;6.01;100.00;101348.34;5049296;28;20143;-73
2023/01/30 06:14:37;;;;;;;25.08;3.55;;;;;;;6.02;100.00;101352.75;5050956;28;20600;-73
2023/01/30 06:17:02;;;;;;;28.70;3.22;;;;;;;6.02;100.00;101331.84;5041959;28;20037;-73
2023/01/30 06:19:27;;;;;;;23.95;2.72;;;;;;;6.01;100.00;101323.91;5047767;28;20099;-73
2023/01/30 06:21:53;;;;;;;13.95;2.67;;;;;;;5.96;100.00;101326.31;5051498;28;20472;-74
2023/01/30 06:24:18;;;;;;;29.75;3.67;;;;;;;5.95;100.00;101334.09;5052437;28;20495;-74
2023/01/30 06:26:43;;;;;;;22.58;3.90;;;;;;;5.93;100.00;101347.09;5043735;28;20448;-74
2023/01/30 06:29:09;;;;;;;26.15;3.60;;;;;;;5.92;100.00;101350.50;5033541;28;20536;-73
2023/01/30 06:31:34;;;;;;;19.73;3.25;;;;;;;5.92;100.00;101355.75;5034420;28;20537;-73
2023/01/30 06:34:00;;;;;;;15.48;2.20;;;;;;;5.93;100.00;101344.47;5049315;28;20029;-75
2023/01/30 06:36:25;;;;;;;22.88;3.33;;;;;;;5.94;100.00;101350.56;5046554;28;20017;-73
2023/01/30 06:38:50;;;;;;;23.27;2.53;;;;;;;5.90;100.00;101342.63;5048438;28;20179;-72
2023/01/30 06:41:16;;;;;;;23.48;2.40;;;;;;;5.85;100.00;101341.50;5052196;28;20162;-74
2023/01/30 06:43:41;;;;;;;24.38;3.22;;;;;;;5.87;100.00;101342.50;5063950;28;20028;-74
2023/01/30 06:46:07;;;;;;;20.63;3.88;;;;;;;5.85;100.00;101336.28;5057736;28;20028;-73
2023/01/30 06:48:32;;;;;;;17.35;2.80;;;;;;;5.86;100.00;101345.00;5047355;28;20112;-73
2023/01/30 06:50:57;;;;;;;23.65;3.25;;;;;;;5.85;100.00;101343.25;5049759;28;20039;-73
2023/01/30 06:53:29;;;;;;;27.17;2.92;;;;;;;5.83;100.00;101356.25;5051141;28;20032;-73
2023/01/30 06:55:57;;;;;;;22.23;3.30;;;;;;;5.85;100.00;101366.75;5053543;28;20456;-74
2023/01/30 06:58:22;;;;;;;22.52;2.65;;;;;;;5.84;100.00;101373.66;5048134;28;20017;-73
2023/01/30 07:00:48;;;;;;;13.63;2.25;;;;;;;5.85;100.00;101374.59;5046695;28;20529;-73
2023/01/30 07:03:16;;;;;;;20.35;3.47;;;;;;;5.85;100.00;101385.91;5051326;28;20029;-74
2023/01/30 07:05:43;;;;;;;18.98;3.40;;;;;;;5.86;100.00;101389.41;5050919;28;20045;-73
2023/01/30 07:08:09;;;;;;;16.92;3.10;;;;;;;5.83;100.00;101391.88;5050837;28;20033;-72
2023/01/30 07:10:34;;;;;;;14.80;2.13;;;;;;;5.81;100.00;101390.94;5051331;28;20021;-74
2023/01/30 07:13:02;;;;;;;13.77;2.80;;;;;;;5.80;100.00;101387.41;5049987;28;20021;-74
2023/01/30 07:15:27;;;;;;;18.17;2.97;;;;;;;5.78;100.00;101403.84;5050059;28;20130;-74
2023/01/30 07:17:53;;;;;;;24.80;3.90;;;;;;;5.82;100.00;101405.75;5050751;28;20075;-74
2023/01/30 07:20:18;;;;;;;16.38;2.65;;;;;;;5.77;100.00;101402.97;5048624;28;20105;-72
2023/01/30 07:22:52;;;;;;;22.88;2.88;;;;;;;5.83;100.00;101415.41;5057005;28;20033;-74
2023/01/30 07:25:19;;;;;;;25.27;3.35;;;;;;;5.80;100.00;101402.22;5052845;28;20056;-73
2023/01/30 07:27:51;;;;;;;21.48;2.85;;;;;;;5.80;100.00;101402.22;5051316;28;20493;-73
2023/01/30 07:30:17;;;;;;;24.80;3.45;;;;;;;5.78;100.00;101398.63;5050199;28;20112;-73
2023/01/30 07:32:42;;;;;;;15.95;2.58;;;;;;;5.80;100.00;101410.91;5050712;28;20742;-72
2023/01/30 07:35:08;;;;;;;17.50;3.05;;;;;;;5.86;100.00;101397.25;5051796;28;20090;-74
2023/01/30 07:37:33;;;;;;;19.30;3.22;;;;;;;5.86;100.00;101395.53;5048167;28;20040;-74
2023/01/30 07:39:58;;;;;;;14.27;2.13;;;;;;;5.86;100.00;101408.59;5051206;28;20025;-73
2023/01/30 07:42:24;;;;;;;17.13;2.83;;;;;;;5.88;100.00;101401.72;5052176;28;20063;-74
2023/01/30 07:44:49;;;;;;;17.45;1.70;;;;;;;5.89;100.00;101400.00;5052153;28;20063;-73
2023/01/30 07:47:15;;;;;;;14.45;2.45;;;;;;;5.93;100.00;101399.31;5050036;28;20025;-73
2023/01/30 07:49:41;;;;;;;29.63;2.35;;;;;;;5.94;100.00;101406.34;5060012;28;20036;-73
2023/01/30 07:52:06;;;;;;;21.77;2.58;;;;;;;5.96;100.00;101414.25;5052067;28;20021;-73
2023/01/30 07:54:32;;;;;;;22.98;2.83;;;;;;;5.95;100.00;101410.72;5052129;28;20027;-74
2023/01/30 07:56:57;;;;;;;16.52;2.45;;;;;;;5.91;100.00;101421.84;5052810;28;20028;-73
2023/01/30 07:59:22;;;;;;;14.13;2.33;;;;;;;5.99;100.00;101411.78;5050803;28;20087;-74
2023/01/30 08:01:48;;;;;;;22.23;2.75;;;;;;;6.02;100.00;101424.97;5053161;28;20039;-74
2023/01/30 08:04:13;;;;;;;22.77;2.90;;;;;;;6.02;100.00;101436.34;5055252;28;20096;-72
2023/01/30 08:06:38;;;;;;;17.42;3.13;;;;;;;6.04;100.00;101439.91;5056494;28;20102;-72
2023/01/30 08:09:05;;;;;;;21.08;3.13;;;;;;;6.05;100.00;101431.25;5055959;28;20092;-73
2023/01/30 08:11:30;;;;;;;19.38;2.88;;;;;;;6.06;100.00;101440.88;5075544;28;20032;-74
2023/01/30 08:13:55;;;;;;;20.23;2.90;;;;;;;6.05;100.00;101436.47;5076799;28;20376;-72
2023/01/30 08:16:21;;;;;;;13.85;2.40;;;;;;;6.05;100.00;101432.94;5065592;28;20377;-73
2023/01/30 08:18:46;;;;;;;17.45;2.80;;;;;;;6.06;100.00;101434.75;5063200;28;20433;-73
2023/01/30 08:21:12;;;;;;;15.07;2.60;;;;;;;6.06;100.00;101430.44;5057965;28;20025;-73
2023/01/30 08:23:37;;;;;;;17.50;2.95;;;;;;;6.04;100.00;101434.69;5056139;28;20028;-73
2023/01/30 08:26:03;;;;;;;13.43;2.28;;;;;;;6.08;100.00;101433.09;5056367;28;20032;-74
2023/01/30 08:28:29;;;;;;;20.60;2.78;;;;;;;6.08;100.00;101418.31;5055105;28;20041;-74
2023/01/30 08:30:55;;;;;;;17.08;2.58;;;;;;;6.11;100.00;101434.97;5055083;28;20056;-73
2023/01/30 08:33:23;;;;;;;18.08;1.92;;;;;;;6.12;100.00;101436.72;5072059;28;20029;-74
2023/01/30 08:35:48;;;;;;;23.85;3.08;;;;;;;6.19;100.00;101434.47;5076455;28;20380;-73
2023/01/30 08:38:14;;;;;;;22.33;2.65;;;;;;;6.19;100.00;101449.25;5075940;28;20032;-72
2023/01/30 08:40:40;;;;;;;13.50;3.60;;;;;;;6.23;100.00;101462.50;5075110;28;20468;-74
2023/01/30 08:43:06;;;;;;;13.15;2.28;;;;;;;6.26;100.00;101466.97;5061363;28;20377;-73
2023/01/30 08:45:31;;;;;;;16.70;2.85;;;;;;;6.31;100.00;101478.53;5052733;28;20380;-73
2023/01/30 08:48:02;;;;;;;15.32;2.42;;;;;;;6.41;100.00;101482.44;5065569;28;20103;-73
2023/01/30 08:50:27;;;;;;;14.32;2.90;;;;;;;6.44;100.00;101495.66;5070610;28;20032;-73
2023/01/30 08:52:53;;;;;;;11.82;2.25;;;;;;;6.48;100.00;101491.47;5055917;28;20100;-74
2023/01/30 08:55:19;;;;;;;15.13;2.17;;;;;;;6.55;100.00;101499.66;5053890;28;20016;-74
2023/01/30 08:57:45;;;;;;;26.30;2.60;;;;;;;6.56;100.00;101497.91;5054799;28;20384;-74
2023/01/30 09:00:11;;;;;;;19.00;2.50;;;;;;;6.50;100.00;101492.44;5053246;28;20119;-73
2023/01/30 09:02:36;;;;;;;15.55;2.72;;;;;;;6.51;100.00;101491.59;5054344;28;20103;-73
2023/01/30 09:05:02;;;;;;;11.02;2.17;;;;;;;6.54;100.00;101494.34;5054185;28;20404;-73
2023/01/30 09:07:28;;;;;;;17.25;2.45;;;;;;;6.56;100.00;101492.69;5049338;28;20549;-74
2023/01/30 09:09:54;;;;;;;32.45;3.05;;;;;;;6.61;100.00;101506.84;5055177;28;20104;-73
2023/01/30 09:12:20;;;;;;;16.95;2.55;;;;;;;6.64;100.00;101503.47;5054012;28;20459;-74
2023/01/30 09:14:45;;;;;;;14.68;2.75;;;;;;;6.56;100.00;101510.97;5053031;28;20017;-72
2023/01/30 09:17:11;;;;;;;16.95;3.15;;;;;;;6.57;100.00;101524.13;5053980;28;20017;-73
2023/01/30 09:19:37;;;;;;;16.40;2.50;;;;;;;6.56;100.00;101509.25;5049385;28;20026;-73
2023/01/30 09:22:02;;;;;;;10.85;1.80;;;;;;;6.70;100.00;101515.09;5053255;28;20029;-74
2023/01/30 09:24:28;;;;;;;20.05;3.17;;;;;;;6.77;100.00;101523.19;5052561;28;20028;-74
2023/01/30 09:26:57;;;;;;;8.70;1.63;;;;;;;6.84;100.00;101533.13;5053036;28;20033;-73
2023/01/30 09:29:23;;;;;;;21.17;2.85;;;;;;;6.84;100.00;101530.50;5053647;28;20023;-73
2023/01/30 09:31:49;;;;;;;13.60;2.08;;;;;;;6.81;100.00;101525.13;5058143;28;20067;-73
2023/01/30 09:34:14;;;;;;;16.33;2.00;;;;;;;6.81;100.00;101530.34;5062915;28;20472;-74
2023/01/30 09:36:40;;;;;;;11.10;2.22;;;;;;;6.80;100.00;101533.81;5054242;28;20020;-73
2023/01/30 09:39:06;;;;;;;18.75;2.33;;;;;;;6.78;100.00;101545.91;5054154;28;20472;-74
2023/01/30 09:41:58;;;;;;;12.00;2.03;;;;;;;6.75;100.00;101552.81;5054251;28;20112;-74
2023/01/30 09:45:01;;;;;;;10.15;1.88;;;;;;;6.71;100.00;101556.09;5053356;28;20082;-74
2023/01/30 09:47:51;;;;;;;26.08;3.45;;;;;;;6.64;100.00;101553.16;5055644;28;20021;-74
2023/01/30 09:50:38;;;;;;;14.27;2.55;;;;;;;6.61;100.00;101553.94;5055488;28;20031;-74
2023/01/30 09:53:13;;;;;;;23.38;2.75;;;;;;;6.69;100.00;101563.00;5054105;28;20039;-74
2023/01/30 09:55:43;;;;;;;17.55;3.00;;;;;;;6.74;100.00;101569.34;5071207;28;20039;-73
2023/01/30 09:58:20;;;;;;;13.85;2.35;;;;;;;6.81;100.00;101561.72;5059258;28;20086;-73
2023/01/30 10:00:48;;;;;;;18.33;2.85;;;;;;;6.80;100.00;101576.53;5052544;28;20021;-73
2023/01/30 10:03:20;;;;;;;19.30;3.25;;;;;;;6.90;100.00;101580.44;5059977;28;20127;-74
2023/01/30 10:05:56;;;;;;;19.75;3.30;;;;;;;7.15;100.00;101591.97;5053555;28;20515;-74
2023/01/30 10:08:40;;;;;;;19.67;2.78;;;;;;;7.18;100.00;101600.84;5057492;28;20021;-73
2023/01/30 10:11:32;;;;;;;21.40;2.85;;;;;;;7.32;100.00;101590.97;5064485;28;20036;-74
2023/01/30 10:14:25;;;;;;;17.65;2.53;;;;;;;7.23;100.00;101607.19;5058103;28;20036;-73
2023/01/30 10:17:00;;;;;;;15.10;2.30;;;;;;;7.06;100.00;101610.81;5050523;28;20028;-73
2023/01/30 10:19:37;;;;;;;23.30;3.63;;;;;;;7.05;100.00;101603.78;5049810;28;20035;-73
2023/01/30 10:22:17;;;;;;;9.80;2.35;;;;;;;7.38;100.00;101601.69;5052643;28;20029;-73
2023/01/30 10:25:07;;;;;;;14.50;2.45;;;;;;;7.73;100.00;101610.13;5047529;28;20029;-74
2023/01/30 10:27:34;;;;;;;19.55;2.72;;;;;;;7.83;100.00;101615.75;5072507;28;20024;-74
2023/01/30 10:30:04;;;;;;;15.80;2.72;;;;;;;7.66;100.00;101610.69;5050692;28;20380;-73
2023/01/30 10:32:38;;;;;;;17.02;2.97;;;;;;;7.54;100.00;101615.41;5053406;28;20377;-74
2023/01/30 10:35:14;;;;;;;16.65;2.53;;;;;;;7.43;100.00;101602.78;5051845;28;20063;-73
2023/01/30 10:38:02;;;;;;;27.90;4.30;;;;;;;7.49;100.00;101616.94;5056435;28;20387;-73
2023/01/30 10:40:42;;;;;;;15.05;2.35;;;;;;;7.46;100.00;101622.06;5059585;28;20033;-73
2023/01/30 10:43:27;;;;;;;24.20;3.55;;;;;;;7.33;100.00;101615.44;5046331;28;20056;-74
2023/01/30 10:46:21;;;;;;;;;;;;;;;7.28;100.00;101617.84;5043741;28;20437;-73
2023/01/30 10:49:01;;;;;;;21.02;3.58;;;;;;;7.29;100.00;101606.53;5048120;28;19939;-73
2023/01/30 10:51:41;;;;;;;23.55;3.58;;;;;;;7.25;100.00;101617.72;5053213;28;20028;-71
2023/01/30 10:54:17;;;;;;;23.23;3.00;;;;;;;7.21;100.00;101632.38;5053114;28;20029;-73
2023/01/30 10:56:52;;;;;;;21.15;2.88;;;;;;;7.18;100.00;101631.38;5051482;28;20473;-73
2023/01/30 10:59:45;;;;;;;19.48;3.67;;;;;;;7.18;100.00;101637.50;5052479;28;20035;-74
2023/01/30 11:02:23;;;;;;;17.88;3.13;;;;;;;7.21;100.00;101639.34;5054973;28;20033;-73
2023/01/30 11:05:02;;;;;;;16.42;3.03;;;;;;;7.26;100.00;101643.06;5055774;28;20028;-73
2023/01/30 11:07:30;;;;;;;20.55;3.20;;;;;;;7.24;100.00;101644.72;5062727;28;20116;-73
2023/01/30 11:09:57;;;;;;;18.20;3.08;;;;;;;7.21;100.00;101648.09;5050444;28;20451;-72
2023/01/30 11:12:23;;;;;;;20.10;2.83;;;;;;;7.13;100.00;101638.13;5049189;28;20486;-74
2023/01/30 11:14:59;;;;;;;25.88;3.13;;;;;;;7.12;100.00;101644.19;5052735;28;20025;-72
2023/01/30 11:17:34;;;;;;;21.50;2.83;;;;;;;7.07;100.00;101637.03;5052013;28;20024;-73
2023/01/30 11:20:06;;;;;;;22.88;3.75;;;;;;;7.03;100.00;101642.97;5052443;28;20028;-73
2023/01/30 11:22:34;;;;;;;29.90;4.38;;;;;;;7.06;100.00;101637.84;5052527;28;20025;-72
2023/01/30 11:25:02;;;;;;;21.80;3.75;;;;;;;7.06;100.00;101643.09;5052263;28;20021;-73
2023/01/30 11:27:31;;;;;;;22.67;2.72;;;;;;;7.06;100.00;101637.84;5050245;28;20064;-73
2023/01/30 11:30:13;;;;;;;26.60;3.08;;;;;;;7.11;100.00;101634.53;5051966;28;20384;-73
2023/01/30 11:32:44;;;;;;;18.55;4.18;;;;;;;7.03;100.00;101622.03;5050945;28;20369;-72
2023/01/30 11:35:12;;;;;;;19.67;3.50;;;;;;;7.15;100.00;101634.75;5053437;28;20103;-72
2023/01/30 11:37:43;;;;;;;23.08;4.22;;;;;;;7.35;100.00;101635.63;5052183;28;20029;-73